createdAt,value
2022-11-30T00:00:02.587Z,6.47
2022-11-30T00:00:59.345Z,6.44
2022-11-30T00:01:46.001Z,6.43
2022-11-30T00:02:32.938Z,6.43
2022-11-30T00:03:19.886Z,6.45
2022-11-30T00:04:08.047Z,6.45
2022-11-30T00:04:54.712Z,6.45
2022-11-30T00:05:43.818Z,6.45
2022-11-30T00:06:30.607Z,6.44
2022-11-30T00:07:17.606Z,6.44
2022-11-30T00:08:04.292Z,6.49
2022-11-30T00:08:56.414Z,6.45
2022-11-30T00:09:43.146Z,6.43
2022-11-30T00:10:29.708Z,6.40
2022-11-30T00:11:21.046Z,6.42
2022-11-30T00:12:08.047Z,6.42
2022-11-30T00:12:54.809Z,6.41
2022-11-30T00:13:42.307Z,6.43
2022-11-30T00:14:28.823Z,6.45
2022-11-30T00:15:17.376Z,6.44
2022-11-30T00:16:04.567Z,6.43
2022-11-30T00:16:51.216Z,6.41
2022-11-30T00:17:37.881Z,6.39
2022-11-30T00:18:24.890Z,6.39
2022-11-30T00:19:11.571Z,6.41
2022-11-30T00:19:58.474Z,6.38
2022-11-30T00:20:45.675Z,6.41
2022-11-30T00:21:32.305Z,6.43
2022-11-30T00:22:18.758Z,6.45
2022-11-30T00:23:05.398Z,6.47
2022-11-30T00:23:52.362Z,6.45
2022-11-30T00:24:39.241Z,6.46
2022-11-30T00:25:28.836Z,6.46
2022-11-30T00:26:17.971Z,6.44
2022-11-30T00:27:04.537Z,6.43
2022-11-30T00:27:52.794Z,6.43
2022-11-30T00:28:40.653Z,6.41
2022-11-30T00:29:27.177Z,6.40
2022-11-30T00:30:14.709Z,6.41
2022-11-30T00:31:04.876Z,6.40
2022-11-30T00:31:51.574Z,6.41
2022-11-30T00:32:38.922Z,6.40
2022-11-30T00:33:25.414Z,6.42
2022-11-30T00:34:12.215Z,6.40
2022-11-30T00:34:58.785Z,6.40
2022-11-30T00:35:56.121Z,6.42
2022-11-30T00:36:42.780Z,6.38
2022-11-30T00:37:29.353Z,6.35
2022-11-30T00:38:16.191Z,6.38
2022-11-30T00:39:02.697Z,6.39
2022-11-30T00:39:50.772Z,6.34
2022-11-30T00:40:37.358Z,6.34
2022-11-30T00:41:24.011Z,6.36
2022-11-30T00:42:10.996Z,6.34
2022-11-30T00:42:57.825Z,6.29
2022-11-30T00:43:45.195Z,6.36
2022-11-30T00:44:31.886Z,6.33
2022-11-30T00:45:18.447Z,6.29
2022-11-30T00:46:06.086Z,6.28
2022-11-30T00:46:52.583Z,6.28
2022-11-30T00:47:39.234Z,6.31
2022-11-30T00:48:26.728Z,6.30
2022-11-30T00:49:13.340Z,6.29
2022-11-30T00:50:00.203Z,6.27
2022-11-30T00:50:49.351Z,6.24
2022-11-30T00:51:36.006Z,6.24
2022-11-30T00:52:22.803Z,6.29
2022-11-30T00:53:09.498Z,6.30
2022-11-30T00:53:56.245Z,6.29
2022-11-30T00:54:42.815Z,6.29
2022-11-30T00:55:31.627Z,6.30
2022-11-30T00:56:19.487Z,6.32
2022-11-30T00:57:06.235Z,6.31
2022-11-30T00:57:53.532Z,6.33
2022-11-30T00:58:41.167Z,6.36
2022-11-30T00:59:28.067Z,6.33
2022-11-30T01:00:15.405Z,6.34
2022-11-30T01:01:02.592Z,6.33
2022-11-30T01:01:49.325Z,6.28
2022-11-30T01:02:35.980Z,6.30
2022-11-30T01:03:22.549Z,6.32
2022-11-30T01:04:09.468Z,6.34
2022-11-30T01:04:56.105Z,6.32
2022-11-30T01:05:43.486Z,6.30
2022-11-30T01:06:30.310Z,6.31
2022-11-30T01:07:16.974Z,6.29
2022-11-30T01:08:06.583Z,6.31
2022-11-30T01:08:53.123Z,6.32
2022-11-30T01:09:39.581Z,6.28
2022-11-30T01:10:27.513Z,6.32
2022-11-30T01:11:21.599Z,6.27
2022-11-30T01:12:08.322Z,6.30
2022-11-30T01:12:55.329Z,6.30
2022-11-30T01:13:42.209Z,6.35
2022-11-30T01:14:28.863Z,6.34
2022-11-30T01:15:15.533Z,6.31
2022-11-30T01:16:02.347Z,6.29
2022-11-30T01:16:54.739Z,6.27
2022-11-30T01:17:42.833Z,6.28
2022-11-30T01:18:29.518Z,6.27
2022-11-30T01:19:16.247Z,6.25
2022-11-30T01:20:05.205Z,6.28
2022-11-30T01:20:51.794Z,6.27
2022-11-30T01:21:38.863Z,6.27
2022-11-30T01:22:25.439Z,6.25
2022-11-30T01:23:12.053Z,6.30
2022-11-30T01:23:59.090Z,6.27
2022-11-30T01:24:48.952Z,6.25
2022-11-30T01:25:35.803Z,6.24
2022-11-30T01:26:23.388Z,6.24
2022-11-30T01:27:09.866Z,6.25
2022-11-30T01:27:56.516Z,6.24
2022-11-30T01:28:44.281Z,6.24
2022-11-30T01:29:30.887Z,6.23
2022-11-30T01:30:18.958Z,6.22
2022-11-30T01:31:08.342Z,6.27
2022-11-30T01:31:54.969Z,6.24
2022-11-30T01:32:41.637Z,6.20
2022-11-30T01:33:28.271Z,6.19
2022-11-30T01:34:14.935Z,6.18
2022-11-30T01:35:01.785Z,6.21
2022-11-30T01:35:48.282Z,6.21
2022-11-30T01:36:36.309Z,6.22
2022-11-30T01:37:23.303Z,6.21
2022-11-30T01:38:10.251Z,6.25
2022-11-30T01:38:58.245Z,6.25
2022-11-30T01:39:44.983Z,6.24
2022-11-30T01:40:31.510Z,6.23
2022-11-30T01:41:24.254Z,6.24
2022-11-30T01:42:17.789Z,6.23
2022-11-30T01:43:11.633Z,6.22
2022-11-30T01:44:19.975Z,6.25
2022-11-30T01:45:12.598Z,6.24
2022-11-30T01:45:59.352Z,6.23
2022-11-30T01:46:57.459Z,6.23
2022-11-30T01:47:53.428Z,6.25
2022-11-30T01:48:40.204Z,6.23
2022-11-30T01:49:31.550Z,6.33
2022-11-30T01:50:32.009Z,6.33
2022-11-30T01:51:19.351Z,6.34
2022-11-30T01:52:08.170Z,6.33
2022-11-30T01:52:57.073Z,6.33
2022-11-30T01:53:43.675Z,6.29
2022-11-30T01:54:38.274Z,6.26
2022-11-30T01:55:49.242Z,6.24
2022-11-30T01:56:41.436Z,6.24
2022-11-30T01:57:35.756Z,6.25
2022-11-30T01:58:29.970Z,6.24
2022-11-30T01:59:22.057Z,6.21
2022-11-30T02:00:13.861Z,6.19
2022-11-30T02:01:01.969Z,6.20
2022-11-30T02:01:48.774Z,6.23
2022-11-30T02:02:57.460Z,6.26
2022-11-30T02:03:55.728Z,6.22
2022-11-30T02:04:43.339Z,6.19
2022-11-30T02:05:31.478Z,6.22
2022-11-30T02:06:18.973Z,6.21
2022-11-30T02:07:08.515Z,6.20
2022-11-30T02:07:55.967Z,6.17
2022-11-30T02:08:43.309Z,6.16
2022-11-30T02:09:39.526Z,6.19
2022-11-30T02:10:30.401Z,6.20
2022-11-30T02:11:17.541Z,6.21
2022-11-30T02:12:08.931Z,6.24
2022-11-30T02:13:08.334Z,6.25
2022-11-30T02:14:13.386Z,6.28
2022-11-30T02:15:09.329Z,6.27
2022-11-30T02:16:21.816Z,6.29
2022-11-30T02:17:19.857Z,6.28
2022-11-30T02:18:15.122Z,6.26
2022-11-30T02:19:07.764Z,6.25
2022-11-30T02:20:24.723Z,6.24
2022-11-30T02:21:22.215Z,6.31
2022-11-30T02:22:45.969Z,6.28
2022-11-30T02:23:42.981Z,6.23
2022-11-30T02:24:55.341Z,6.21
2022-11-30T02:26:08.691Z,6.20
2022-11-30T02:27:28.893Z,6.22
2022-11-30T02:28:34.030Z,6.23
2022-11-30T02:29:24.567Z,6.27
2022-11-30T02:30:16.445Z,6.26
2022-11-30T02:31:10.519Z,6.26
2022-11-30T02:32:25.987Z,6.26
2022-11-30T02:33:18.841Z,6.25
2022-11-30T02:34:10.937Z,6.23
2022-11-30T02:35:01.853Z,6.24
2022-11-30T02:35:55.320Z,6.23
2022-11-30T02:36:47.386Z,6.23
2022-11-30T02:37:37.405Z,6.23
2022-11-30T02:38:27.348Z,6.25
2022-11-30T02:39:14.294Z,6.22
2022-11-30T02:40:01.032Z,6.23
2022-11-30T02:40:48.130Z,6.25
2022-11-30T02:41:39.689Z,6.25
2022-11-30T02:42:26.483Z,6.23
2022-11-30T02:43:15.178Z,6.23
2022-11-30T02:44:02.225Z,6.21
2022-11-30T02:44:52.576Z,6.27
2022-11-30T02:45:50.363Z,6.24
2022-11-30T02:47:01.768Z,6.27
2022-11-30T02:48:07.865Z,6.25
2022-11-30T02:49:18.936Z,6.24
2022-11-30T02:50:25.568Z,6.25
2022-11-30T02:51:17.940Z,6.23
2022-11-30T02:52:08.212Z,6.27
2022-11-30T02:52:56.112Z,6.26
2022-11-30T02:53:46.862Z,6.27
2022-11-30T02:54:34.711Z,6.27
2022-11-30T02:55:21.483Z,6.26
2022-11-30T02:56:11.515Z,6.26
2022-11-30T02:56:58.433Z,6.28
2022-11-30T02:57:48.097Z,6.30
2022-11-30T02:58:35.071Z,6.36
2022-11-30T02:59:22.333Z,6.30
2022-11-30T03:00:13.940Z,6.29
2022-11-30T03:01:00.605Z,6.28
2022-11-30T03:01:47.319Z,6.27
2022-11-30T03:02:34.182Z,6.28
2022-11-30T03:03:21.069Z,6.28
2022-11-30T03:04:07.603Z,6.27
2022-11-30T03:04:54.156Z,6.25
2022-11-30T03:05:40.722Z,6.25
2022-11-30T03:06:27.310Z,6.28
2022-11-30T03:07:14.132Z,6.25
2022-11-30T03:08:00.956Z,6.25
2022-11-30T03:08:47.818Z,6.24
2022-11-30T03:09:34.281Z,6.24
2022-11-30T03:10:21.248Z,6.25
2022-11-30T03:11:07.985Z,6.25
2022-11-30T03:11:54.747Z,6.25
2022-11-30T03:12:41.300Z,6.24
2022-11-30T03:13:27.981Z,6.24
2022-11-30T03:14:14.629Z,6.25
2022-11-30T03:15:03.202Z,6.28
2022-11-30T03:15:50.201Z,6.26
2022-11-30T03:16:38.046Z,6.24
2022-11-30T03:17:24.809Z,6.27
2022-11-30T03:18:11.871Z,6.28
2022-11-30T03:18:58.970Z,6.31
2022-11-30T03:19:45.420Z,6.32
2022-11-30T03:20:32.617Z,6.32
2022-11-30T03:21:19.374Z,6.37
2022-11-30T03:22:06.467Z,6.41
2022-11-30T03:22:52.886Z,6.40
2022-11-30T03:23:40.814Z,6.41
2022-11-30T03:24:27.555Z,6.44
2022-11-30T03:25:14.152Z,6.42
2022-11-30T03:26:00.700Z,6.42
2022-11-30T03:26:47.188Z,6.41
2022-11-30T03:27:33.845Z,6.43
2022-11-30T03:28:20.342Z,6.42
2022-11-30T03:29:07.151Z,6.42
2022-11-30T03:29:53.758Z,6.43
2022-11-30T03:30:40.300Z,6.39
2022-11-30T03:31:26.962Z,6.40
2022-11-30T03:32:13.686Z,6.39
2022-11-30T03:33:00.349Z,6.39
2022-11-30T03:33:47.205Z,6.40
2022-11-30T03:34:33.796Z,6.38
2022-11-30T03:35:20.366Z,6.35
2022-11-30T03:36:09.674Z,6.37
2022-11-30T03:36:56.338Z,6.35
2022-11-30T03:37:43.041Z,6.38
2022-11-30T03:38:30.444Z,6.39
2022-11-30T03:39:16.995Z,6.39
2022-11-30T03:40:06.839Z,6.38
2022-11-30T03:41:04.332Z,6.38
2022-11-30T03:41:51.764Z,6.37
2022-11-30T03:42:38.512Z,6.38
2022-11-30T03:43:25.220Z,6.36
2022-11-30T03:44:11.951Z,6.37
2022-11-30T03:44:58.744Z,6.38
2022-11-30T03:45:46.539Z,6.39
2022-11-30T03:46:36.079Z,6.38
2022-11-30T03:47:23.286Z,6.40
2022-11-30T03:48:09.783Z,6.42
2022-11-30T03:48:56.429Z,6.43
2022-11-30T03:49:42.910Z,6.44
2022-11-30T03:50:30.101Z,6.44
2022-11-30T03:51:16.635Z,6.44
2022-11-30T03:52:03.217Z,6.46
2022-11-30T03:52:49.998Z,6.46
2022-11-30T03:53:37.209Z,6.46
2022-11-30T03:54:23.880Z,6.46
2022-11-30T03:55:11.075Z,6.44
2022-11-30T03:56:00.803Z,6.40
2022-11-30T03:56:47.547Z,6.42
2022-11-30T03:57:34.796Z,6.41
2022-11-30T03:58:23.171Z,6.41
2022-11-30T03:59:09.860Z,6.41
2022-11-30T03:59:56.363Z,6.43
2022-11-30T04:00:42.876Z,6.43
2022-11-30T04:01:29.404Z,6.42
2022-11-30T04:02:16.054Z,6.44
2022-11-30T04:03:02.896Z,6.46
2022-11-30T04:03:51.612Z,6.44
2022-11-30T04:04:38.045Z,6.42
2022-11-30T04:05:24.578Z,6.42
2022-11-30T04:06:13.022Z,6.43
2022-11-30T04:06:59.786Z,6.43
2022-11-30T04:07:46.365Z,6.43
2022-11-30T04:08:33.786Z,6.42
2022-11-30T04:09:20.349Z,6.42
2022-11-30T04:10:08.759Z,6.39
2022-11-30T04:10:57.513Z,6.43
2022-11-30T04:11:46.738Z,6.42
2022-11-30T04:12:33.440Z,6.43
2022-11-30T04:13:21.212Z,6.45
2022-11-30T04:14:07.831Z,6.42
2022-11-30T04:14:54.333Z,6.44
2022-11-30T04:15:40.975Z,6.46
2022-11-30T04:16:27.849Z,6.47
2022-11-30T04:17:14.551Z,6.47
2022-11-30T04:18:01.902Z,6.48
2022-11-30T04:18:48.589Z,6.47
2022-11-30T04:19:36.183Z,6.50
2022-11-30T04:20:22.719Z,6.47
2022-11-30T04:21:10.378Z,6.49
2022-11-30T04:21:56.853Z,6.47
2022-11-30T04:22:43.481Z,6.40
2022-11-30T04:23:33.246Z,6.39
2022-11-30T04:24:19.997Z,6.41
2022-11-30T04:25:07.146Z,6.42
2022-11-30T04:25:53.619Z,6.38
2022-11-30T04:26:40.318Z,6.38
2022-11-30T04:27:28.774Z,6.39
2022-11-30T04:28:16.771Z,6.42
2022-11-30T04:29:04.782Z,6.44
2022-11-30T04:29:51.532Z,6.42
2022-11-30T04:30:38.067Z,6.41
2022-11-30T04:31:24.692Z,6.44
2022-11-30T04:32:11.412Z,6.46
2022-11-30T04:32:58.456Z,6.48
2022-11-30T04:33:45.040Z,6.43
2022-11-30T04:34:33.850Z,6.44
2022-11-30T04:35:21.125Z,6.42
2022-11-30T04:36:17.738Z,6.42
2022-11-30T04:37:04.247Z,6.40
2022-11-30T04:37:50.705Z,6.39
2022-11-30T04:38:37.675Z,6.39
2022-11-30T04:39:24.166Z,6.38
2022-11-30T04:40:11.308Z,6.41
2022-11-30T04:40:58.009Z,6.42
2022-11-30T04:41:45.401Z,6.43
2022-11-30T04:42:31.888Z,6.43
2022-11-30T04:43:18.543Z,6.41
2022-11-30T04:44:05.005Z,6.41
2022-11-30T04:44:51.671Z,6.39
2022-11-30T04:45:42.782Z,6.41
2022-11-30T04:46:29.609Z,6.41
2022-11-30T04:47:16.428Z,6.43
2022-11-30T04:48:03.971Z,6.43
2022-11-30T04:48:50.599Z,6.46
2022-11-30T04:49:37.364Z,6.46
2022-11-30T04:50:23.979Z,6.51
2022-11-30T04:51:10.623Z,6.46
2022-11-30T04:51:57.292Z,6.45
2022-11-30T04:52:44.040Z,6.47
2022-11-30T04:53:30.706Z,6.48
2022-11-30T04:54:17.352Z,6.50
2022-11-30T04:55:04.379Z,6.47
2022-11-30T04:55:50.796Z,6.48
2022-11-30T04:56:37.287Z,6.47
2022-11-30T04:57:27.721Z,6.48
2022-11-30T04:58:16.716Z,6.49
2022-11-30T04:59:03.435Z,6.49
2022-11-30T04:59:50.059Z,6.52
2022-11-30T05:00:37.464Z,6.50
2022-11-30T05:01:24.216Z,6.52
2022-11-30T05:02:10.888Z,6.50
2022-11-30T05:02:57.527Z,6.51
2022-11-30T05:03:44.097Z,6.50
2022-11-30T05:04:32.858Z,6.49
2022-11-30T05:05:19.473Z,6.50
2022-11-30T05:06:06.327Z,6.49
2022-11-30T05:07:40.518Z,6.48
2022-11-30T05:08:27.426Z,6.46
2022-11-30T05:09:13.922Z,6.47
2022-11-30T05:10:00.611Z,6.49
2022-11-30T05:10:54.946Z,6.50
2022-11-30T05:11:43.626Z,6.47
2022-11-30T05:12:30.259Z,6.48
2022-11-30T05:13:16.856Z,6.47
2022-11-30T05:14:03.530Z,6.46
2022-11-30T05:14:50.152Z,6.47
2022-11-30T05:15:36.676Z,6.46
2022-11-30T05:16:23.254Z,6.46
2022-11-30T05:17:09.835Z,6.48
2022-11-30T05:17:59.302Z,6.47
2022-11-30T05:18:45.976Z,6.46
2022-11-30T05:19:33.616Z,6.49
2022-11-30T05:20:23.038Z,6.48
2022-11-30T05:21:11.084Z,6.50
2022-11-30T05:21:59.227Z,6.52
2022-11-30T05:22:45.822Z,6.52
2022-11-30T05:23:32.590Z,6.50
2022-11-30T05:24:19.090Z,6.52
2022-11-30T05:25:05.973Z,6.54
2022-11-30T05:25:53.943Z,6.52
2022-11-30T05:26:40.484Z,6.54
2022-11-30T05:27:29.775Z,6.54
2022-11-30T05:28:16.710Z,6.51
2022-11-30T05:29:06.056Z,6.50
2022-11-30T05:29:53.064Z,6.52
2022-11-30T05:30:40.908Z,6.56
2022-11-30T05:31:27.665Z,6.57
2022-11-30T05:32:14.311Z,6.56
2022-11-30T05:33:01.312Z,6.56
2022-11-30T05:33:52.749Z,6.58
2022-11-30T05:34:50.038Z,6.66
2022-11-30T05:35:38.572Z,6.60
2022-11-30T05:36:25.632Z,6.62
2022-11-30T05:37:12.367Z,6.56
2022-11-30T05:37:59.081Z,6.57
2022-11-30T05:38:46.231Z,6.56
2022-11-30T05:39:32.920Z,6.52
2022-11-30T05:40:19.790Z,6.59
2022-11-30T05:41:06.381Z,6.58
2022-11-30T05:41:53.031Z,6.58
2022-11-30T05:42:39.888Z,6.57
2022-11-30T05:43:26.642Z,6.54
2022-11-30T05:44:13.287Z,6.52
2022-11-30T05:45:00.980Z,6.59
2022-11-30T05:45:47.784Z,6.55
2022-11-30T05:46:38.342Z,6.48
2022-11-30T05:47:27.353Z,6.52
2022-11-30T05:48:13.957Z,6.51
2022-11-30T05:49:00.622Z,6.49
2022-11-30T05:49:47.292Z,6.47
2022-11-30T05:50:33.837Z,6.47
2022-11-30T05:51:21.503Z,6.48
2022-11-30T05:52:08.003Z,6.45
2022-11-30T05:53:00.715Z,6.53
2022-11-30T05:53:48.046Z,6.47
2022-11-30T05:54:34.911Z,6.44
2022-11-30T05:55:27.119Z,6.44
2022-11-30T05:56:17.030Z,6.42
2022-11-30T05:57:05.360Z,6.41
2022-11-30T05:57:52.781Z,6.47
2022-11-30T05:58:39.861Z,6.46
2022-11-30T05:59:26.396Z,6.43
2022-11-30T06:00:15.745Z,6.42
2022-11-30T06:01:02.888Z,6.42
2022-11-30T06:01:52.040Z,6.39
2022-11-30T06:02:38.841Z,6.39
2022-11-30T06:03:28.270Z,6.37
2022-11-30T06:04:14.973Z,6.39
2022-11-30T06:05:04.403Z,6.37
2022-11-30T06:05:54.839Z,6.38
2022-11-30T06:06:41.547Z,6.46
2022-11-30T06:07:28.077Z,6.41
2022-11-30T06:08:14.622Z,6.39
2022-11-30T06:09:01.527Z,6.42
2022-11-30T06:09:48.211Z,6.39
2022-11-30T06:10:35.513Z,6.39
2022-11-30T06:11:22.259Z,6.39
2022-11-30T06:12:09.006Z,6.36
2022-11-30T06:12:55.517Z,6.38
2022-11-30T06:13:42.816Z,6.34
2022-11-30T06:14:29.377Z,6.35
2022-11-30T06:15:16.036Z,6.35
2022-11-30T06:16:04.949Z,6.36
2022-11-30T06:16:52.030Z,6.37
2022-11-30T06:17:38.747Z,6.39
2022-11-30T06:18:25.396Z,6.36
2022-11-30T06:19:12.053Z,6.28
2022-11-30T06:19:58.723Z,6.26
2022-11-30T06:20:45.355Z,6.33
2022-11-30T06:21:32.173Z,6.29
2022-11-30T06:22:18.654Z,6.28
2022-11-30T06:23:05.616Z,6.25
2022-11-30T06:23:52.985Z,6.25
2022-11-30T06:24:42.003Z,6.22
2022-11-30T06:25:29.018Z,6.19
2022-11-30T06:26:15.491Z,6.19
2022-11-30T06:27:01.999Z,6.28
2022-11-30T06:27:48.680Z,6.27
2022-11-30T06:28:35.628Z,6.27
2022-11-30T06:29:22.381Z,6.22
2022-11-30T06:30:10.224Z,6.20
2022-11-30T06:31:05.628Z,6.22
2022-11-30T06:31:53.323Z,6.23
2022-11-30T06:32:39.914Z,6.23
2022-11-30T06:33:27.347Z,6.15
2022-11-30T06:34:13.963Z,6.19
2022-11-30T06:35:00.602Z,6.18
2022-11-30T06:35:47.454Z,6.17
2022-11-30T06:36:36.316Z,6.10
2022-11-30T06:37:23.275Z,6.15
2022-11-30T06:38:09.778Z,6.17
2022-11-30T06:38:56.339Z,6.15
2022-11-30T06:40:05.236Z,6.16
2022-11-30T06:40:50.137Z,6.17
2022-11-30T06:41:36.827Z,6.16
2022-11-30T06:42:23.487Z,6.15
2022-11-30T06:43:10.274Z,6.18
2022-11-30T06:43:57.281Z,6.15
2022-11-30T06:44:44.067Z,6.13
2022-11-30T06:45:31.680Z,6.12
2022-11-30T06:46:18.373Z,6.09
2022-11-30T06:47:05.113Z,6.09
2022-11-30T06:47:55.748Z,6.11
2022-11-30T06:48:42.491Z,6.10
2022-11-30T06:49:29.156Z,6.09
2022-11-30T06:50:15.851Z,6.10
2022-11-30T06:51:05.621Z,6.09
2022-11-30T06:51:52.308Z,6.11
2022-11-30T06:52:39.060Z,6.13
2022-11-30T06:53:26.002Z,6.15
2022-11-30T06:54:12.566Z,6.12
2022-11-30T06:54:59.507Z,6.10
2022-11-30T06:55:46.207Z,6.13
2022-11-30T06:56:32.745Z,6.12
2022-11-30T06:57:19.256Z,6.12
2022-11-30T06:58:10.369Z,6.13
2022-11-30T06:58:57.470Z,6.11
2022-11-30T06:59:44.289Z,6.12
2022-11-30T07:00:30.954Z,6.13
2022-11-30T07:01:17.590Z,6.09
2022-11-30T07:02:08.863Z,6.06
2022-11-30T07:02:57.571Z,6.01
2022-11-30T07:03:44.185Z,5.99
2022-11-30T07:04:30.679Z,5.98
2022-11-30T07:05:17.146Z,5.96
2022-11-30T07:06:12.682Z,5.92
2022-11-30T07:06:59.398Z,5.91
2022-11-30T07:07:45.905Z,5.89
2022-11-30T07:08:32.398Z,5.92
2022-11-30T07:09:18.844Z,5.90
2022-11-30T07:10:05.783Z,5.89
2022-11-30T07:10:52.990Z,5.87
2022-11-30T07:11:39.749Z,5.84
2022-11-30T07:12:26.810Z,5.82
2022-11-30T07:13:17.105Z,5.81
2022-11-30T07:14:03.750Z,5.81
2022-11-30T07:14:55.440Z,5.80
2022-11-30T07:15:43.297Z,5.79
2022-11-30T07:16:30.078Z,5.77
2022-11-30T07:17:16.661Z,5.79
2022-11-30T07:18:03.128Z,5.77
2022-11-30T07:18:49.758Z,5.75
2022-11-30T07:19:36.175Z,5.73
2022-11-30T07:20:22.804Z,5.72
2022-11-30T07:21:10.574Z,5.71
2022-11-30T07:21:57.351Z,5.70
2022-11-30T07:22:43.948Z,5.69
2022-11-30T07:23:54.284Z,5.70
2022-11-30T07:25:01.148Z,5.69
2022-11-30T07:26:07.585Z,5.68
2022-11-30T07:26:54.356Z,5.66
2022-11-30T07:27:40.771Z,5.66
2022-11-30T07:28:27.181Z,5.65
2022-11-30T07:29:13.698Z,5.61
2022-11-30T07:30:00.428Z,5.60
2022-11-30T07:30:46.979Z,5.61
2022-11-30T07:31:34.886Z,5.60
2022-11-30T07:32:24.468Z,5.61
2022-11-30T07:33:11.247Z,5.61
2022-11-30T07:34:02.879Z,5.57
2022-11-30T07:34:49.876Z,5.58
2022-11-30T07:35:39.269Z,5.58
2022-11-30T07:36:27.636Z,5.59
2022-11-30T07:37:14.322Z,5.58
2022-11-30T07:38:05.374Z,5.59
2022-11-30T07:38:54.838Z,5.56
2022-11-30T07:39:43.927Z,5.54
2022-11-30T07:40:31.286Z,5.57
2022-11-30T07:41:18.039Z,5.56
2022-11-30T07:42:05.274Z,5.56
2022-11-30T07:42:58.740Z,5.58
2022-11-30T07:43:45.303Z,5.61
2022-11-30T07:44:32.845Z,5.60
2022-11-30T07:45:19.359Z,5.62
2022-11-30T07:46:14.050Z,5.64
2022-11-30T07:47:01.118Z,5.69
2022-11-30T07:47:48.009Z,5.64
2022-11-30T07:48:35.322Z,5.63
2022-11-30T07:49:22.083Z,5.66
2022-11-30T07:50:09.299Z,5.63
2022-11-30T07:51:05.687Z,5.61
2022-11-30T07:51:52.377Z,5.62
2022-11-30T07:52:39.372Z,5.62
2022-11-30T07:53:25.973Z,5.63
2022-11-30T07:54:13.766Z,5.62
2022-11-30T07:55:00.286Z,5.62
2022-11-30T07:55:46.812Z,5.64
2022-11-30T07:56:33.393Z,5.64
2022-11-30T07:57:20.143Z,5.66
2022-11-30T07:58:14.208Z,5.67
2022-11-30T07:59:03.737Z,5.71
2022-11-30T07:59:50.468Z,5.74
2022-11-30T08:00:37.964Z,5.71
2022-11-30T08:01:30.129Z,5.75
2022-11-30T08:02:16.966Z,5.75
2022-11-30T08:03:04.299Z,5.72
2022-11-30T08:03:52.352Z,5.71
2022-11-30T08:04:39.178Z,5.74
2022-11-30T08:05:28.245Z,5.78
2022-11-30T08:06:19.784Z,5.79
2022-11-30T08:07:06.458Z,5.76
2022-11-30T08:07:56.898Z,5.77
2022-11-30T08:08:45.408Z,5.83
2022-11-30T08:09:31.983Z,5.78
2022-11-30T08:10:21.040Z,5.81
2022-11-30T08:11:10.799Z,5.80
2022-11-30T08:11:57.459Z,5.77
2022-11-30T08:12:44.165Z,5.78
2022-11-30T08:13:31.410Z,5.78
2022-11-30T08:14:18.267Z,5.78
2022-11-30T08:15:21.770Z,5.79
2022-11-30T08:16:13.789Z,5.85
2022-11-30T08:17:00.692Z,5.84
2022-11-30T08:17:50.297Z,5.83
2022-11-30T08:18:37.413Z,5.84
2022-11-30T08:19:24.267Z,5.85
2022-11-30T08:20:11.876Z,5.81
2022-11-30T08:21:01.608Z,5.81
2022-11-30T08:21:48.178Z,5.84
2022-11-30T08:22:37.033Z,5.85
2022-11-30T08:23:23.709Z,5.93
2022-11-30T08:24:13.577Z,5.87
2022-11-30T08:25:03.410Z,5.87
2022-11-30T08:25:53.092Z,5.88
2022-11-30T08:26:39.922Z,5.87
2022-11-30T08:27:26.866Z,5.90
2022-11-30T08:28:13.386Z,5.88
2022-11-30T08:29:01.505Z,5.89
2022-11-30T08:29:48.037Z,5.91
2022-11-30T08:30:36.999Z,5.89
2022-11-30T08:31:32.395Z,5.85
2022-11-30T08:32:19.088Z,5.85
2022-11-30T08:33:05.576Z,5.89
2022-11-30T08:34:04.198Z,5.88
2022-11-30T08:34:51.089Z,5.89
2022-11-30T08:35:37.803Z,5.88
2022-11-30T08:36:29.394Z,5.88
2022-11-30T08:37:22.412Z,5.87
2022-11-30T08:38:13.011Z,5.85
2022-11-30T08:39:02.562Z,5.89
2022-11-30T08:39:49.465Z,5.89
2022-11-30T08:40:36.357Z,5.88
2022-11-30T08:41:23.865Z,5.90
2022-11-30T08:42:13.248Z,5.93
2022-11-30T08:43:01.041Z,5.97
2022-11-30T08:43:49.607Z,5.96
2022-11-30T08:44:36.362Z,5.96
2022-11-30T08:45:23.247Z,5.92
2022-11-30T08:46:42.561Z,5.96
2022-11-30T08:47:20.002Z,5.93
2022-11-30T08:48:07.208Z,5.93
2022-11-30T08:49:12.557Z,5.90
2022-11-30T08:50:03.910Z,5.91
2022-11-30T08:50:51.076Z,5.93
2022-11-30T08:52:00.851Z,5.94
2022-11-30T08:52:44.443Z,5.95
2022-11-30T08:53:32.365Z,5.99
2022-11-30T08:54:18.978Z,5.95
2022-11-30T08:55:06.362Z,5.98
2022-11-30T08:56:01.360Z,5.96
2022-11-30T08:56:48.052Z,5.93
2022-11-30T08:57:37.770Z,5.90
2022-11-30T08:58:27.544Z,5.89
2022-11-30T08:59:14.268Z,5.90
2022-11-30T09:00:01.051Z,5.95
2022-11-30T09:00:47.566Z,5.92
2022-11-30T09:01:34.060Z,5.94
2022-11-30T09:02:20.641Z,5.99
2022-11-30T09:03:07.184Z,5.97
2022-11-30T09:03:55.775Z,5.93
2022-11-30T09:04:42.413Z,5.91
2022-11-30T09:05:29.055Z,5.91
2022-11-30T09:06:18.689Z,5.97
2022-11-30T09:07:05.526Z,5.97
2022-11-30T09:07:52.361Z,5.93
2022-11-30T09:08:43.624Z,5.89
2022-11-30T09:09:33.294Z,5.89
2022-11-30T09:10:20.038Z,5.86
2022-11-30T09:11:15.973Z,5.87
2022-11-30T09:12:02.774Z,5.87
2022-11-30T09:12:49.554Z,5.87
2022-11-30T09:13:40.261Z,5.87
2022-11-30T09:14:27.038Z,5.87
2022-11-30T09:15:13.726Z,5.87
2022-11-30T09:16:00.294Z,5.92
2022-11-30T09:16:47.118Z,5.92
2022-11-30T09:17:33.755Z,5.93
2022-11-30T09:18:23.003Z,5.95
2022-11-30T09:19:10.422Z,5.92
2022-11-30T09:19:57.111Z,5.89
2022-11-30T09:20:43.681Z,5.91
2022-11-30T09:21:30.410Z,5.91
2022-11-30T09:22:18.199Z,5.92
2022-11-30T09:23:04.845Z,6.00
2022-11-30T09:23:53.233Z,5.96
2022-11-30T09:24:40.219Z,5.92
2022-11-30T09:25:30.120Z,5.95
2022-11-30T09:26:19.807Z,5.99
2022-11-30T09:27:06.397Z,5.98
2022-11-30T09:27:53.089Z,5.98
2022-11-30T09:28:40.071Z,5.98
2022-11-30T09:29:26.734Z,6.03
2022-11-30T09:30:14.023Z,6.04
2022-11-30T09:31:21.797Z,5.99
2022-11-30T09:32:08.615Z,6.01
2022-11-30T09:32:55.170Z,6.00
2022-11-30T09:33:42.392Z,5.95
2022-11-30T09:34:29.168Z,5.93
2022-11-30T09:35:15.764Z,5.97
2022-11-30T09:36:05.829Z,5.98
2022-11-30T09:36:52.672Z,5.95
2022-11-30T09:37:40.257Z,5.98
2022-11-30T09:38:28.472Z,5.96
2022-11-30T09:39:15.150Z,6.00
2022-11-30T09:40:01.843Z,6.06
2022-11-30T09:40:55.771Z,6.08
2022-11-30T09:41:54.055Z,6.12
2022-11-30T09:43:02.539Z,6.13
2022-11-30T09:44:10.587Z,6.06
2022-11-30T09:45:08.120Z,6.04
2022-11-30T09:46:03.505Z,6.01
2022-11-30T09:47:13.296Z,6.02
2022-11-30T09:48:09.008Z,6.03
2022-11-30T09:49:04.306Z,6.06
2022-11-30T09:49:51.318Z,6.06
2022-11-30T09:50:44.146Z,6.10
2022-11-30T09:51:47.839Z,6.18
2022-11-30T09:52:43.809Z,6.18
2022-11-30T09:53:54.948Z,6.14
2022-11-30T09:54:45.538Z,6.09
2022-11-30T09:55:44.445Z,6.09
2022-11-30T09:56:37.712Z,6.08
2022-11-30T09:57:29.040Z,6.07
2022-11-30T09:59:05.040Z,6.13
2022-11-30T09:59:59.328Z,6.18
2022-11-30T10:00:46.020Z,6.21
2022-11-30T10:01:37.698Z,6.19
2022-11-30T10:02:30.472Z,6.16
2022-11-30T10:03:21.950Z,6.13
2022-11-30T10:04:25.951Z,6.12
2022-11-30T10:05:41.071Z,6.10
2022-11-30T10:06:50.627Z,6.17
2022-11-30T10:07:59.106Z,6.18
2022-11-30T10:09:04.104Z,6.15
2022-11-30T10:11:37.668Z,6.18
2022-11-30T10:12:51.553Z,6.16
2022-11-30T10:14:05.139Z,6.17
2022-11-30T10:15:15.146Z,6.18
2022-11-30T10:16:24.263Z,6.20
2022-11-30T10:17:26.009Z,6.18
2022-11-30T10:18:26.251Z,6.20
2022-11-30T10:19:54.911Z,6.21
2022-11-30T10:21:02.796Z,6.20
2022-11-30T10:22:21.728Z,6.20
2022-11-30T10:23:15.058Z,6.20
2022-11-30T10:24:26.775Z,6.20
2022-11-30T10:25:25.415Z,6.20
2022-11-30T10:26:21.553Z,6.18
2022-11-30T10:27:18.344Z,6.14
2022-11-30T10:28:44.976Z,6.16
2022-11-30T10:29:35.709Z,6.14
2022-11-30T10:30:26.148Z,6.12
2022-11-30T10:31:18.181Z,6.09
2022-11-30T10:32:20.626Z,6.18
2022-11-30T10:33:19.369Z,6.15
2022-11-30T10:34:21.806Z,6.20
2022-11-30T10:35:28.684Z,6.18
2022-11-30T10:36:42.139Z,6.18
2022-11-30T10:37:36.830Z,6.18
2022-11-30T10:38:46.949Z,6.17
2022-11-30T10:39:58.417Z,6.19
2022-11-30T10:41:03.880Z,6.19
2022-11-30T10:42:12.614Z,6.27
2022-11-30T10:43:09.938Z,6.28
2022-11-30T10:44:11.384Z,6.30
2022-11-30T10:45:12.109Z,6.30
2022-11-30T10:46:00.437Z,6.27
2022-11-30T10:46:59.501Z,6.23
2022-11-30T10:48:00.140Z,6.24
2022-11-30T10:48:58.930Z,6.25
2022-11-30T10:49:50.668Z,6.24
2022-11-30T10:50:37.397Z,6.21
2022-11-30T10:51:26.886Z,6.21
2022-11-30T10:52:21.978Z,6.24
2022-11-30T10:53:12.435Z,6.25
2022-11-30T10:54:00.372Z,6.29
2022-11-30T10:54:52.560Z,6.28
2022-11-30T10:55:50.435Z,6.31
2022-11-30T10:56:37.038Z,6.32
2022-11-30T10:57:31.577Z,6.28
2022-11-30T10:58:36.412Z,6.31
2022-11-30T10:59:27.802Z,6.32
2022-11-30T11:00:18.590Z,6.32
2022-11-30T11:01:11.342Z,6.35
2022-11-30T11:01:58.037Z,6.34
2022-11-30T11:02:47.931Z,6.33
2022-11-30T11:03:34.756Z,6.30
2022-11-30T11:04:25.114Z,6.28
2022-11-30T11:05:30.983Z,6.34
2022-11-30T11:06:25.453Z,6.33